sensor_id;sensor_type;location;lat;lon;timestamp;P1;P2;P0
55304;PMS7003;65692;51.378;19.824;2024-03-22T00:00:20;93.00;69.25;44.25
55304;PMS7003;65692;51.378;19.824;2024-03-22T00:02:45;94.25;68.00;43.50
55304;PMS7003;65692;51.378;19.824;2024-03-22T00:05:11;91.00;69.00;44.00
55304;PMS7003;65692;51.378;19.824;2024-03-22T00:07:37;89.75;66.50;42.00
55304;PMS7003;65692;51.378;19.824;2024-03-22T00:10:04;78.75;59.25;40.25
55304;PMS7003;65692;51.378;19.824;2024-03-22T00:12:30;82.50;63.50;42.25
55304;PMS7003;65692;51.378;19.824;2024-03-22T00:14:55;91.00;65.50;43.00
55304;PMS7003;65692;51.378;19.824;2024-03-22T00:17:21;83.50;62.25;41.25
55304;PMS7003;65692;51.378;19.824;2024-03-22T00:19:47;85.25;65.00;42.75
55304;PMS7003;65692;51.378;19.824;2024-03-22T00:22:12;86.50;63.75;41.75
55304;PMS7003;65692;51.378;19.824;2024-03-22T00:24:38;82.25;63.00;39.75
55304;PMS7003;65692;51.378;19.824;2024-03-22T00:27:04;79.50;60.25;39.25
55304;PMS7003;65692;51.378;19.824;2024-03-22T00:29:29;82.00;60.25;39.50
55304;PMS7003;65692;51.378;19.824;2024-03-22T00:31:55;80.00;60.25;39.25
55304;PMS7003;65692;51.378;19.824;2024-03-22T00:34:20;85.50;63.25;40.00
55304;PMS7003;65692;51.378;19.824;2024-03-22T00:36:46;84.25;61.00;40.00
55304;PMS7003;65692;51.378;19.824;2024-03-22T00:39:13;86.50;65.25;40.75
55304;PMS7003;65692;51.378;19.824;2024-03-22T00:41:38;84.00;62.00;42.00
55304;PMS7003;65692;51.378;19.824;2024-03-22T00:44:04;83.00;62.25;40.00
55304;PMS7003;65692;51.378;19.824;2024-03-22T00:46:30;78.75;58.00;40.00
55304;PMS7003;65692;51.378;19.824;2024-03-22T00:48:56;83.25;62.50;41.00
55304;PMS7003;65692;51.378;19.824;2024-03-22T00:51:21;77.00;60.00;39.50
55304;PMS7003;65692;51.378;19.824;2024-03-22T00:53:47;81.50;61.50;39.75
55304;PMS7003;65692;51.378;19.824;2024-03-22T00:56:13;81.50;61.50;40.00
55304;PMS7003;65692;51.378;19.824;2024-03-22T00:58:38;84.75;60.25;40.25
55304;PMS7003;65692;51.378;19.824;2024-03-22T01:01:04;81.25;61.00;39.25
55304;PMS7003;65692;51.378;19.824;2024-03-22T01:03:29;80.50;60.00;39.00
55304;PMS7003;65692;51.378;19.824;2024-03-22T01:05:55;81.00;61.00;39.50
55304;PMS7003;65692;51.378;19.824;2024-03-22T01:08:22;77.50;60.50;40.25
55304;PMS7003;65692;51.378;19.824;2024-03-22T01:10:48;75.00;58.75;38.00
55304;PMS7003;65692;51.378;19.824;2024-03-22T01:13:13;86.25;60.00;40.75
55304;PMS7003;65692;51.378;19.824;2024-03-22T01:15:39;82.25;60.25;38.75
55304;PMS7003;65692;51.378;19.824;2024-03-22T01:18:05;84.75;61.75;40.25
55304;PMS7003;65692;51.378;19.824;2024-03-22T01:20:30;83.00;63.25;41.00
55304;PMS7003;65692;51.378;19.824;2024-03-22T01:22:56;81.25;62.75;40.25
55304;PMS7003;65692;51.378;19.824;2024-03-22T01:25:21;78.00;61.25;40.00
55304;PMS7003;65692;51.378;19.824;2024-03-22T01:27:47;79.50;56.75;36.50
55304;PMS7003;65692;51.378;19.824;2024-03-22T01:30:12;80.25;59.75;39.75
55304;PMS7003;65692;51.378;19.824;2024-03-22T01:32:38;79.00;61.25;40.25
55304;PMS7003;65692;51.378;19.824;2024-03-22T01:35:04;82.00;63.00;38.75
55304;PMS7003;65692;51.378;19.824;2024-03-22T01:37:30;81.00;61.25;41.00
55304;PMS7003;65692;51.378;19.824;2024-03-22T01:39:55;85.50;60.00;39.00
55304;PMS7003;65692;51.378;19.824;2024-03-22T01:42:21;81.50;60.25;41.00
55304;PMS7003;65692;51.378;19.824;2024-03-22T01:44:48;82.00;62.25;41.00
55304;PMS7003;65692;51.378;19.824;2024-03-22T01:47:14;79.50;61.25;41.50
55304;PMS7003;65692;51.378;19.824;2024-03-22T01:49:40;79.75;59.75;39.00
55304;PMS7003;65692;51.378;19.824;2024-03-22T01:52:06;78.75;60.75;40.50
55304;PMS7003;65692;51.378;19.824;2024-03-22T01:54:31;79.25;61.50;42.50
55304;PMS7003;65692;51.378;19.824;2024-03-22T01:56:57;74.00;54.75;37.25
55304;PMS7003;65692;51.378;19.824;2024-03-22T01:59:23;79.75;62.00;39.00
55304;PMS7003;65692;51.378;19.824;2024-03-22T02:01:49;76.00;59.00;38.25
55304;PMS7003;65692;51.378;19.824;2024-03-22T02:04:15;75.75;58.50;38.25
55304;PMS7003;65692;51.378;19.824;2024-03-22T02:06:41;80.50;60.00;38.75
55304;PMS7003;65692;51.378;19.824;2024-03-22T02:09:07;73.75;56.50;37.00
55304;PMS7003;65692;51.378;19.824;2024-03-22T02:11:35;82.50;62.00;40.75
55304;PMS7003;65692;51.378;19.824;2024-03-22T02:14:01;83.25;61.25;40.50
55304;PMS7003;65692;51.378;19.824;2024-03-22T02:16:27;81.25;58.00;38.25
55304;PMS7003;65692;51.378;19.824;2024-03-22T02:18:53;82.00;60.25;39.50
55304;PMS7003;65692;51.378;19.824;2024-03-22T02:21:19;79.25;60.25;39.00
55304;PMS7003;65692;51.378;19.824;2024-03-22T02:23:44;84.75;62.50;40.50
55304;PMS7003;65692;51.378;19.824;2024-03-22T02:26:10;82.50;59.50;39.50
55304;PMS7003;65692;51.378;19.824;2024-03-22T02:28:36;79.00;62.50;40.75
55304;PMS7003;65692;51.378;19.824;2024-03-22T02:31:02;78.50;57.00;37.50
55304;PMS7003;65692;51.378;19.824;2024-03-22T02:33:28;78.00;58.25;40.00
55304;PMS7003;65692;51.378;19.824;2024-03-22T02:35:53;84.00;60.75;40.00
55304;PMS7003;65692;51.378;19.824;2024-03-22T02:38:19;80.75;60.25;41.00
55304;PMS7003;65692;51.378;19.824;2024-03-22T02:40:45;84.50;63.75;41.00
55304;PMS7003;65692;51.378;19.824;2024-03-22T02:43:11;87.00;63.50;41.25
55304;PMS7003;65692;51.378;19.824;2024-03-22T02:45:37;82.00;61.75;41.00
55304;PMS7003;65692;51.378;19.824;2024-03-22T02:48:03;80.00;61.75;42.25
55304;PMS7003;65692;51.378;19.824;2024-03-22T02:50:33;76.00;58.75;40.00
55304;PMS7003;65692;51.378;19.824;2024-03-22T02:52:58;81.50;64.00;43.00
55304;PMS7003;65692;51.378;19.824;2024-03-22T02:55:24;90.75;63.50;42.75
55304;PMS7003;65692;51.378;19.824;2024-03-22T02:57:49;83.00;63.00;41.50
55304;PMS7003;65692;51.378;19.824;2024-03-22T03:00:15;83.50;63.25;41.25
55304;PMS7003;65692;51.378;19.824;2024-03-22T03:02:41;92.25;67.00;42.75
55304;PMS7003;65692;51.378;19.824;2024-03-22T03:05:07;92.75;68.25;41.50
55304;PMS7003;65692;51.378;19.824;2024-03-22T03:07:33;77.25;61.75;41.00
55304;PMS7003;65692;51.378;19.824;2024-03-22T03:09:59;85.00;63.75;41.25
55304;PMS7003;65692;51.378;19.824;2024-03-22T03:12:25;83.75;64.50;41.75
55304;PMS7003;65692;51.378;19.824;2024-03-22T03:14:50;81.75;64.25;41.00
55304;PMS7003;65692;51.378;19.824;2024-03-22T03:17:16;82.75;62.75;40.00
55304;PMS7003;65692;51.378;19.824;2024-03-22T03:19:42;85.50;62.75;43.00
55304;PMS7003;65692;51.378;19.824;2024-03-22T03:22:07;87.75;64.75;43.25
55304;PMS7003;65692;51.378;19.824;2024-03-22T03:24:33;76.75;58.00;40.50
55304;PMS7003;65692;51.378;19.824;2024-03-22T03:26:59;82.75;61.00;39.75
55304;PMS7003;65692;51.378;19.824;2024-03-22T03:29:24;85.25;62.00;40.25
55304;PMS7003;65692;51.378;19.824;2024-03-22T03:31:50;86.75;60.50;38.75
55304;PMS7003;65692;51.378;19.824;2024-03-22T03:34:16;78.00;60.25;40.00
55304;PMS7003;65692;51.378;19.824;2024-03-22T03:36:41;80.25;60.25;39.75
55304;PMS7003;65692;51.378;19.824;2024-03-22T03:39:07;81.25;61.00;40.00
55304;PMS7003;65692;51.378;19.824;2024-03-22T03:41:32;85.25;61.75;39.25
55304;PMS7003;65692;51.378;19.824;2024-03-22T03:43:58;86.00;60.75;38.75
55304;PMS7003;65692;51.378;19.824;2024-03-22T03:46:23;83.75;62.75;41.00
55304;PMS7003;65692;51.378;19.824;2024-03-22T03:48:49;88.75;60.50;39.75
55304;PMS7003;65692;51.378;19.824;2024-03-22T03:51:15;84.00;61.00;40.00
55304;PMS7003;65692;51.378;19.824;2024-03-22T03:53:40;79.50;58.00;38.00
55304;PMS7003;65692;51.378;19.824;2024-03-22T03:56:06;85.75;62.75;41.00
55304;PMS7003;65692;51.378;19.824;2024-03-22T03:58:31;77.75;61.00;38.75
55304;PMS7003;65692;51.378;19.824;2024-03-22T04:00:57;76.25;60.75;41.50
55304;PMS7003;65692;51.378;19.824;2024-03-22T04:03:23;82.25;59.50;39.75
55304;PMS7003;65692;51.378;19.824;2024-03-22T04:05:58;81.75;59.00;38.25
55304;PMS7003;65692;51.378;19.824;2024-03-22T04:08:27;83.50;62.50;39.50
55304;PMS7003;65692;51.378;19.824;2024-03-22T04:10:53;82.25;61.75;38.25
55304;PMS7003;65692;51.378;19.824;2024-03-22T04:13:22;77.00;62.75;39.75
55304;PMS7003;65692;51.378;19.824;2024-03-22T04:15:48;79.25;60.75;41.00
55304;PMS7003;65692;51.378;19.824;2024-03-22T04:18:13;78.00;59.75;38.25
55304;PMS7003;65692;51.378;19.824;2024-03-22T04:20:39;80.25;58.75;37.00
55304;PMS7003;65692;51.378;19.824;2024-03-22T04:23:04;65.75;53.00;35.50
55304;PMS7003;65692;51.378;19.824;2024-03-22T04:25:30;75.25;57.50;36.25
55304;PMS7003;65692;51.378;19.824;2024-03-22T04:27:56;74.25;53.75;33.25
55304;PMS7003;65692;51.378;19.824;2024-03-22T04:30:21;75.00;54.50;35.25
55304;PMS7003;65692;51.378;19.824;2024-03-22T04:32:47;61.25;50.50;35.25
55304;PMS7003;65692;51.378;19.824;2024-03-22T04:35:12;69.75;53.25;34.50
55304;PMS7003;65692;51.378;19.824;2024-03-22T04:37:38;64.50;51.00;34.50
55304;PMS7003;65692;51.378;19.824;2024-03-22T04:40:04;63.00;48.25;32.75
55304;PMS7003;65692;51.378;19.824;2024-03-22T04:42:29;60.50;43.00;29.00
55304;PMS7003;65692;51.378;19.824;2024-03-22T04:44:55;53.50;40.50;27.50
55304;PMS7003;65692;51.378;19.824;2024-03-22T04:47:21;43.00;38.25;26.00
55304;PMS7003;65692;51.378;19.824;2024-03-22T04:49:46;25.67;25.00;21.00
55304;PMS7003;65692;51.378;19.824;2024-03-22T04:52:12;36.33;30.67;21.00
55304;PMS7003;65692;51.378;19.824;2024-03-22T04:54:37;46.00;35.33;23.00
55304;PMS7003;65692;51.378;19.824;2024-03-22T04:57:03;42.00;30.00;20.67
55304;PMS7003;65692;51.378;19.824;2024-03-22T04:59:29;43.33;33.67;23.67
55304;PMS7003;65692;51.378;19.824;2024-03-22T05:01:54;36.00;30.00;22.33
55304;PMS7003;65692;51.378;19.824;2024-03-22T05:04:20;37.00;33.67;23.00
55304;PMS7003;65692;51.378;19.824;2024-03-22T05:06:45;38.33;30.67;22.67
55304;PMS7003;65692;51.378;19.824;2024-03-22T05:09:11;26.67;24.67;17.00
55304;PMS7003;65692;51.378;19.824;2024-03-22T05:11:38;36.67;28.67;20.67
55304;PMS7003;65692;51.378;19.824;2024-03-22T05:14:04;25.00;22.67;17.00
55304;PMS7003;65692;51.378;19.824;2024-03-22T05:16:29;22.00;22.00;12.67
55304;PMS7003;65692;51.378;19.824;2024-03-22T05:18:55;35.00;27.33;18.67
55304;PMS7003;65692;51.378;19.824;2024-03-22T05:21:21;30.67;28.00;19.00
55304;PMS7003;65692;51.378;19.824;2024-03-22T05:23:46;35.67;29.33;21.33
55304;PMS7003;65692;51.378;19.824;2024-03-22T05:26:12;29.67;23.33;19.00
55304;PMS7003;65692;51.378;19.824;2024-03-22T05:28:39;33.67;28.00;18.00
55304;PMS7003;65692;51.378;19.824;2024-03-22T05:31:08;37.00;29.00;17.00
55304;PMS7003;65692;51.378;19.824;2024-03-22T05:34:38;38.00;30.00;19.33
55304;PMS7003;65692;51.378;19.824;2024-03-22T05:37:21;33.00;31.00;20.00
55304;PMS7003;65692;51.378;19.824;2024-03-22T05:39:46;36.33;30.67;22.00
55304;PMS7003;65692;51.378;19.824;2024-03-22T05:42:12;48.67;40.33;26.67
55304;PMS7003;65692;51.378;19.824;2024-03-22T05:44:39;43.00;37.67;25.00
55304;PMS7003;65692;51.378;19.824;2024-03-22T05:47:04;42.67;36.67;24.33
55304;PMS7003;65692;51.378;19.824;2024-03-22T05:49:30;31.67;28.33;20.00
55304;PMS7003;65692;51.378;19.824;2024-03-22T05:51:56;34.67;30.67;21.00
55304;PMS7003;65692;51.378;19.824;2024-03-22T05:54:21;41.00;32.33;22.00
55304;PMS7003;65692;51.378;19.824;2024-03-22T05:56:47;38.67;30.00;21.67
55304;PMS7003;65692;51.378;19.824;2024-03-22T05:59:12;39.00;30.33;21.33
55304;PMS7003;65692;51.378;19.824;2024-03-22T06:01:38;35.67;32.00;20.67
55304;PMS7003;65692;51.378;19.824;2024-03-22T06:04:04;38.33;30.33;20.67
55304;PMS7003;65692;51.378;19.824;2024-03-22T06:06:34;36.25;31.00;21.75
55304;PMS7003;65692;51.378;19.824;2024-03-22T06:09:00;37.75;27.25;19.25
55304;PMS7003;65692;51.378;19.824;2024-03-22T06:11:29;29.00;25.00;17.75
55304;PMS7003;65692;51.378;19.824;2024-03-22T06:13:54;35.00;31.67;21.67
55304;PMS7003;65692;51.378;19.824;2024-03-22T06:16:20;49.67;38.67;24.67
55304;PMS7003;65692;51.378;19.824;2024-03-22T06:18:45;40.33;35.00;24.67
55304;PMS7003;65692;51.378;19.824;2024-03-22T06:21:11;34.33;27.67;19.33
55304;PMS7003;65692;51.378;19.824;2024-03-22T06:23:36;49.00;40.25;27.00
55304;PMS7003;65692;51.378;19.824;2024-03-22T06:26:02;40.67;37.33;25.00
55304;PMS7003;65692;51.378;19.824;2024-03-22T06:28:28;51.67;42.00;23.67
55304;PMS7003;65692;51.378;19.824;2024-03-22T06:30:53;47.67;40.33;29.67
55304;PMS7003;65692;51.378;19.824;2024-03-22T06:33:19;49.33;35.00;22.67
55304;PMS7003;65692;51.378;19.824;2024-03-22T06:35:45;61.00;49.75;32.00
55304;PMS7003;65692;51.378;19.824;2024-03-22T06:38:11;58.50;44.00;26.75
55304;PMS7003;65692;51.378;19.824;2024-03-22T06:40:37;59.50;44.50;29.50
55304;PMS7003;65692;51.378;19.824;2024-03-22T06:43:03;52.50;39.00;23.00
55304;PMS7003;65692;51.378;19.824;2024-03-22T06:45:28;27.67;27.33;13.33
55304;PMS7003;65692;51.378;19.824;2024-03-22T06:47:54;58.67;48.33;30.00
55304;PMS7003;65692;51.378;19.824;2024-03-22T06:50:20;60.25;46.00;28.00
55304;PMS7003;65692;51.378;19.824;2024-03-22T06:52:52;68.25;48.50;28.75
55304;PMS7003;65692;51.378;19.824;2024-03-22T06:55:19;64.75;46.25;30.75
55304;PMS7003;65692;51.378;19.824;2024-03-22T06:57:47;59.33;44.67;29.00
55304;PMS7003;65692;51.378;19.824;2024-03-22T07:00:14;52.00;39.67;25.33
55304;PMS7003;65692;51.378;19.824;2024-03-22T07:02:39;61.75;48.50;31.75
55304;PMS7003;65692;51.378;19.824;2024-03-22T07:05:08;47.00;38.67;24.00
55304;PMS7003;65692;51.378;19.824;2024-03-22T07:07:37;53.67;39.67;27.33
55304;PMS7003;65692;51.378;19.824;2024-03-22T07:10:03;41.75;34.75;20.75
55304;PMS7003;65692;51.378;19.824;2024-03-22T07:12:31;28.75;23.50;17.00
55304;PMS7003;65692;51.378;19.824;2024-03-22T07:14:57;33.75;28.50;19.25
55304;PMS7003;65692;51.378;19.824;2024-03-22T07:17:23;32.00;25.75;18.50
55304;PMS7003;65692;51.378;19.824;2024-03-22T07:19:50;25.50;23.50;16.50
55304;PMS7003;65692;51.378;19.824;2024-03-22T07:22:16;25.25;18.25;12.00
55304;PMS7003;65692;51.378;19.824;2024-03-22T07:24:43;17.25;14.25;12.00
55304;PMS7003;65692;51.378;19.824;2024-03-22T07:27:09;39.67;33.67;22.33
55304;PMS7003;65692;51.378;19.824;2024-03-22T07:29:35;45.67;36.00;23.00
55304;PMS7003;65692;51.378;19.824;2024-03-22T07:32:00;55.50;38.75;28.00
55304;PMS7003;65692;51.378;19.824;2024-03-22T07:34:26;39.00;29.33;16.00
55304;PMS7003;65692;51.378;19.824;2024-03-22T07:36:51;29.33;23.67;15.67
55304;PMS7003;65692;51.378;19.824;2024-03-22T07:39:17;36.00;31.67;17.67
55304;PMS7003;65692;51.378;19.824;2024-03-22T07:41:42;39.67;32.00;21.00
55304;PMS7003;65692;51.378;19.824;2024-03-22T07:44:08;38.00;33.67;21.00
55304;PMS7003;65692;51.378;19.824;2024-03-22T07:46:33;34.33;30.00;19.00
55304;PMS7003;65692;51.378;19.824;2024-03-22T07:48:59;41.67;32.67;22.33
55304;PMS7003;65692;51.378;19.824;2024-03-22T07:51:25;86.25;60.75;36.00
55304;PMS7003;65692;51.378;19.824;2024-03-22T07:53:50;59.00;45.33;29.00
55304;PMS7003;65692;51.378;19.824;2024-03-22T07:56:17;33.75;23.50;16.00
55304;PMS7003;65692;51.378;19.824;2024-03-22T07:58:43;35.33;29.00;18.00
55304;PMS7003;65692;51.378;19.824;2024-03-22T08:01:08;24.33;20.67;7.67
55304;PMS7003;65692;51.378;19.824;2024-03-22T08:03:34;35.00;25.33;16.33
55304;PMS7003;65692;51.378;19.824;2024-03-22T08:05:59;36.33;26.67;17.33
55304;PMS7003;65692;51.378;19.824;2024-03-22T08:08:25;31.00;25.00;19.00
55304;PMS7003;65692;51.378;19.824;2024-03-22T08:10:51;35.33;32.00;20.33
55304;PMS7003;65692;51.378;19.824;2024-03-22T08:13:16;46.33;35.00;22.33
55304;PMS7003;65692;51.378;19.824;2024-03-22T08:15:43;25.67;25.33;17.00
55304;PMS7003;65692;51.378;19.824;2024-03-22T08:18:11;32.50;25.50;17.25
55304;PMS7003;65692;51.378;19.824;2024-03-22T08:20:36;32.00;23.67;16.00
55304;PMS7003;65692;51.378;19.824;2024-03-22T08:23:04;38.00;29.50;20.75
55304;PMS7003;65692;51.378;19.824;2024-03-22T08:25:29;39.33;32.00;23.00
55304;PMS7003;65692;51.378;19.824;2024-03-22T08:27:55;33.67;26.00;16.00
55304;PMS7003;65692;51.378;19.824;2024-03-22T08:30:21;20.33;17.00;14.00
55304;PMS7003;65692;51.378;19.824;2024-03-22T08:32:47;27.00;26.00;16.67
55304;PMS7003;65692;51.378;19.824;2024-03-22T08:35:13;18.00;18.00;13.00
55304;PMS7003;65692;51.378;19.824;2024-03-22T08:37:38;32.00;27.33;19.00
55304;PMS7003;65692;51.378;19.824;2024-03-22T08:40:04;27.67;22.33;17.00
55304;PMS7003;65692;51.378;19.824;2024-03-22T08:42:30;28.00;19.33;11.33
55304;PMS7003;65692;51.378;19.824;2024-03-22T08:44:55;28.00;21.67;16.67
55304;PMS7003;65692;51.378;19.824;2024-03-22T08:47:21;33.33;29.00;22.00
55304;PMS7003;65692;51.378;19.824;2024-03-22T08:49:46;37.33;31.33;21.67
55304;PMS7003;65692;51.378;19.824;2024-03-22T08:52:12;32.67;24.00;18.33
55304;PMS7003;65692;51.378;19.824;2024-03-22T08:54:38;48.33;33.67;21.00
55304;PMS7003;65692;51.378;19.824;2024-03-22T08:57:03;28.33;22.33;16.67
55304;PMS7003;65692;51.378;19.824;2024-03-22T08:59:29;28.67;18.00;15.00
55304;PMS7003;65692;51.378;19.824;2024-03-22T09:01:57;30.00;25.67;17.00
55304;PMS7003;65692;51.378;19.824;2024-03-22T09:04:24;29.75;23.75;14.25
55304;PMS7003;65692;51.378;19.824;2024-03-22T09:06:50;26.00;22.67;12.00
55304;PMS7003;65692;51.378;19.824;2024-03-22T09:09:16;27.33;24.33;17.33
55304;PMS7003;65692;51.378;19.824;2024-03-22T09:11:42;23.00;21.67;13.67
55304;PMS7003;65692;51.378;19.824;2024-03-22T09:14:08;32.75;23.00;15.25
55304;PMS7003;65692;51.378;19.824;2024-03-22T09:16:34;36.33;26.33;19.67
55304;PMS7003;65692;51.378;19.824;2024-03-22T09:18:59;26.67;19.33;12.33
55304;PMS7003;65692;51.378;19.824;2024-03-22T09:21:25;32.67;30.33;21.00
55304;PMS7003;65692;51.378;19.824;2024-03-22T09:23:51;25.33;23.33;15.67
55304;PMS7003;65692;51.378;19.824;2024-03-22T09:26:16;24.00;20.00;14.00
55304;PMS7003;65692;51.378;19.824;2024-03-22T09:28:42;33.00;25.33;16.33
55304;PMS7003;65692;51.378;19.824;2024-03-22T09:31:07;38.67;29.00;19.67
55304;PMS7003;65692;51.378;19.824;2024-03-22T09:33:33;38.67;34.33;24.33
55304;PMS7003;65692;51.378;19.824;2024-03-22T09:35:59;38.33;32.67;18.67
55304;PMS7003;65692;51.378;19.824;2024-03-22T09:38:24;48.00;37.33;23.00
55304;PMS7003;65692;51.378;19.824;2024-03-22T09:40:50;38.33;30.00;20.00
55304;PMS7003;65692;51.378;19.824;2024-03-22T09:43:19;26.25;25.50;16.50
55304;PMS7003;65692;51.378;19.824;2024-03-22T09:45:46;35.75;31.50;18.75
55304;PMS7003;65692;51.378;19.824;2024-03-22T09:48:12;37.50;32.50;20.25
55304;PMS7003;65692;51.378;19.824;2024-03-22T09:50:38;37.00;31.00;22.00
55304;PMS7003;65692;51.378;19.824;2024-03-22T09:53:04;34.00;29.33;21.00
55304;PMS7003;65692;51.378;19.824;2024-03-22T09:55:30;29.75;26.75;15.50
55304;PMS7003;65692;51.378;19.824;2024-03-22T09:57:57;20.25;19.00;10.75
55304;PMS7003;65692;51.378;19.824;2024-03-22T10:00:23;29.67;25.00;17.67
55304;PMS7003;65692;51.378;19.824;2024-03-22T10:02:51;34.50;30.75;20.50
55304;PMS7003;65692;51.378;19.824;2024-03-22T10:05:17;29.67;26.67;18.67
55304;PMS7003;65692;51.378;19.824;2024-03-22T10:07:45;31.33;23.00;16.33
55304;PMS7003;65692;51.378;19.824;2024-03-22T10:10:11;25.00;23.00;14.75
55304;PMS7003;65692;51.378;19.824;2024-03-22T10:12:37;29.00;24.25;17.75
55304;PMS7003;65692;51.378;19.824;2024-03-22T10:15:04;19.25;18.25;13.00
55304;PMS7003;65692;51.378;19.824;2024-03-22T10:17:30;23.33;19.33;13.33
55304;PMS7003;65692;51.378;19.824;2024-03-22T10:19:56;27.75;25.75;18.25
55304;PMS7003;65692;51.378;19.824;2024-03-22T10:22:22;25.67;25.67;17.33
55304;PMS7003;65692;51.378;19.824;2024-03-22T10:24:49;23.50;21.75;14.00
55304;PMS7003;65692;51.378;19.824;2024-03-22T10:27:14;24.67;20.33;16.67
55304;PMS7003;65692;51.378;19.824;2024-03-22T10:29:40;26.00;19.33;14.00
55304;PMS7003;65692;51.378;19.824;2024-03-22T10:32:06;27.25;20.25;12.50
55304;PMS7003;65692;51.378;19.824;2024-03-22T10:34:32;22.00;20.33;14.00
55304;PMS7003;65692;51.378;19.824;2024-03-22T10:36:59;21.50;19.50;12.00
55304;PMS7003;65692;51.378;19.824;2024-03-22T10:39:25;27.75;20.00;14.50
55304;PMS7003;65692;51.378;19.824;2024-03-22T10:41:51;23.25;20.50;13.00
55304;PMS7003;65692;51.378;19.824;2024-03-22T10:44:16;26.67;21.00;14.67
55304;PMS7003;65692;51.378;19.824;2024-03-22T10:46:47;20.00;17.67;12.67
55304;PMS7003;65692;51.378;19.824;2024-03-22T10:49:16;26.25;21.75;15.25
55304;PMS7003;65692;51.378;19.824;2024-03-22T10:51:43;22.75;17.00;10.50
55304;PMS7003;65692;51.378;19.824;2024-03-22T10:54:09;16.50;15.00;10.50
55304;PMS7003;65692;51.378;19.824;2024-03-22T10:56:36;18.25;14.25;12.00
55304;PMS7003;65692;51.378;19.824;2024-03-22T10:59:05;17.00;14.00;10.67
55304;PMS7003;65692;51.378;19.824;2024-03-22T11:01:31;17.00;16.25;12.00
55304;PMS7003;65692;51.378;19.824;2024-03-22T11:04:05;105.00;88.75;58.75
55304;PMS7003;65692;51.378;19.824;2024-03-22T11:06:31;56.33;42.67;28.00
55304;PMS7003;65692;51.378;19.824;2024-03-22T11:09:00;40.25;35.00;23.00
55304;PMS7003;65692;51.378;19.824;2024-03-22T11:11:28;42.75;35.50;23.75
55304;PMS7003;65692;51.378;19.824;2024-03-22T11:13:54;18.25;16.25;13.00
55304;PMS7003;65692;51.378;19.824;2024-03-22T11:16:21;16.75;14.50;8.50
55304;PMS7003;65692;51.378;19.824;2024-03-22T11:18:47;225.25;196.50;118.25
55304;PMS7003;65692;51.378;19.824;2024-03-22T11:21:14;92.75;72.25;46.25
55304;PMS7003;65692;51.378;19.824;2024-03-22T11:23:39;311.25;259.75;149.75
55304;PMS7003;65692;51.378;19.824;2024-03-22T11:26:05;79.50;59.50;39.50
55304;PMS7003;65692;51.378;19.824;2024-03-22T11:28:33;35.00;30.00;20.25
55304;PMS7003;65692;51.378;19.824;2024-03-22T11:30:59;65.00;53.50;37.00
55304;PMS7003;65692;51.378;19.824;2024-03-22T11:33:24;84.50;63.50;40.50
55304;PMS7003;65692;51.378;19.824;2024-03-22T11:35:52;41.50;36.00;26.00
55304;PMS7003;65692;51.378;19.824;2024-03-22T11:38:18;67.50;52.50;32.25
55304;PMS7003;65692;51.378;19.824;2024-03-22T11:40:44;46.33;39.67;27.67
55304;PMS7003;65692;51.378;19.824;2024-03-22T11:43:09;33.00;25.50;14.50
55304;PMS7003;65692;51.378;19.824;2024-03-22T11:45:35;37.75;33.00;23.00
55304;PMS7003;65692;51.378;19.824;2024-03-22T11:48:02;44.25;37.25;27.25
55304;PMS7003;65692;51.378;19.824;2024-03-22T11:50:29;28.00;21.75;14.50
55304;PMS7003;65692;51.378;19.824;2024-03-22T11:52:54;24.25;20.25;13.25
55304;PMS7003;65692;51.378;19.824;2024-03-22T11:55:21;16.75;16.00;11.50
55304;PMS7003;65692;51.378;19.824;2024-03-22T11:57:50;18.00;18.00;11.67
55304;PMS7003;65692;51.378;19.824;2024-03-22T12:00:17;16.75;14.00;9.50
55304;PMS7003;65692;51.378;19.824;2024-03-22T12:02:43;12.25;11.50;9.00
55304;PMS7003;65692;51.378;19.824;2024-03-22T12:05:09;20.00;16.50;11.25
55304;PMS7003;65692;51.378;19.824;2024-03-22T12:07:35;22.67;16.33;13.00
55304;PMS7003;65692;51.378;19.824;2024-03-22T12:10:00;19.33;18.00;13.33
55304;PMS7003;65692;51.378;19.824;2024-03-22T12:12:26;14.33;12.67;8.67
55304;PMS7003;65692;51.378;19.824;2024-03-22T12:14:52;16.00;13.00;8.33
55304;PMS7003;65692;51.378;19.824;2024-03-22T12:17:18;13.25;11.25;8.75
55304;PMS7003;65692;51.378;19.824;2024-03-22T12:19:44;20.67;14.33;10.00
55304;PMS7003;65692;51.378;19.824;2024-03-22T12:22:10;13.50;11.75;9.25
55304;PMS7003;65692;51.378;19.824;2024-03-22T12:24:36;10.00;10.00;7.67
55304;PMS7003;65692;51.378;19.824;2024-03-22T12:27:01;16.25;12.75;10.75
55304;PMS7003;65692;51.378;19.824;2024-03-22T12:29:27;16.33;16.33;11.00
55304;PMS7003;65692;51.378;19.824;2024-03-22T12:31:54;11.75;11.25;9.00
55304;PMS7003;65692;51.378;19.824;2024-03-22T12:34:20;21.33;14.00;10.33
55304;PMS7003;65692;51.378;19.824;2024-03-22T12:36:46;18.33;17.67;13.00
55304;PMS7003;65692;51.378;19.824;2024-03-22T12:39:11;18.00;15.33;11.00
55304;PMS7003;65692;51.378;19.824;2024-03-22T12:41:37;21.00;17.67;13.67
55304;PMS7003;65692;51.378;19.824;2024-03-22T12:44:02;20.33;16.33;12.00
55304;PMS7003;65692;51.378;19.824;2024-03-22T12:46:29;17.50;17.50;11.50
55304;PMS7003;65692;51.378;19.824;2024-03-22T12:48:54;20.00;16.00;11.00
55304;PMS7003;65692;51.378;19.824;2024-03-22T12:51:20;17.67;15.67;11.00
55304;PMS7003;65692;51.378;19.824;2024-03-22T12:53:45;19.33;14.00;11.00
55304;PMS7003;65692;51.378;19.824;2024-03-22T12:56:11;19.67;16.33;11.67
55304;PMS7003;65692;51.378;19.824;2024-03-22T12:58:37;19.00;17.00;12.33
55304;PMS7003;65692;51.378;19.824;2024-03-22T13:01:03;18.67;16.67;11.67
55304;PMS7003;65692;51.378;19.824;2024-03-22T13:03:31;15.00;13.50;10.75
55304;PMS7003;65692;51.378;19.824;2024-03-22T13:05:57;17.00;12.25;9.00
55304;PMS7003;65692;51.378;19.824;2024-03-22T13:08:23;19.67;14.67;9.67
55304;PMS7003;65692;51.378;19.824;2024-03-22T13:10:48;13.00;12.00;9.67
55304;PMS7003;65692;51.378;19.824;2024-03-22T13:13:14;17.33;16.33;10.33
55304;PMS7003;65692;51.378;19.824;2024-03-22T13:15:42;14.25;14.00;10.00
55304;PMS7003;65692;51.378;19.824;2024-03-22T13:18:07;17.25;15.25;11.25
55304;PMS7003;65692;51.378;19.824;2024-03-22T13:20:38;19.00;13.75;12.00
55304;PMS7003;65692;51.378;19.824;2024-03-22T13:23:10;17.75;16.50;13.00
55304;PMS7003;65692;51.378;19.824;2024-03-22T13:25:38;22.00;18.75;11.00
55304;PMS7003;65692;51.378;19.824;2024-03-22T13:28:05;27.50;23.25;16.75